Time;durP1;ratioP1;P1;durP2;ratioP2;P2;SDS_P1;SDS_P2;PMS_P1;PMS_P2;Temp;Humidity;BMP_temperature;BMP_pressure;BME280_temperature;BME280_humidity;BME280_pressure;Samples;Min_cycle;Max_cycle;Signal;HPM_P1;HPM_P2
2024/04/01 00:00:26;;;;;;;6.57;1.40;;;;;;;;;;6105271;23;20624;-87
2024/04/01 00:03:22;;;;;;;9.03;1.77;;;;;;;;;;6105572;23;20189;-86
2024/04/01 00:06:01;;;;;;;6.23;1.67;;;;;;;;;;6107575;23;20187;-86
2024/04/01 00:08:57;;;;;;;4.30;1.60;;;;;;;;;;6099965;23;20174;-87
2024/04/01 00:11:35;;;;;;;7.93;1.60;;;;;;;;;;6106149;23;20170;-87
2024/04/01 00:14:05;;;;;;;5.37;1.50;;;;;;;;;;6105363;23;20230;-88
2024/04/01 00:16:47;;;;;;;6.20;1.40;;;;;;;;;;6105877;23;20253;-87
2024/04/01 00:20:08;;;;;;;7.10;1.80;;;;;;;;;;6108013;23;20172;-88
2024/04/01 00:22:54;;;;;;;8.17;1.63;;;;;;;;;;6106165;23;20185;-87
2024/04/01 00:25:49;;;;;;;5.43;1.43;;;;;;;;;;6107676;23;20195;-87
2024/04/01 00:28:54;;;;;;;5.17;1.50;;;;;;;;;;6101784;23;20660;-86
2024/04/01 00:31:53;;;;;;;6.90;1.97;;;;;;;;;;6105934;23;20198;-88
2024/04/01 00:34:33;;;;;;;7.10;1.50;;;;;;;;;;6106262;23;20198;-87
2024/04/01 00:37:05;;;;;;;3.73;1.50;;;;;;;;;;6108869;23;20628;-88
2024/04/01 00:39:42;;;;;;;5.43;1.83;;;;;;;;;;6106417;23;20159;-86
2024/04/01 00:42:23;;;;;;;4.87;1.50;;;;;;;;;;6108509;23;20173;-86
2024/04/01 00:45:19;;;;;;;7.00;1.73;;;;;;;;;;6108779;23;20246;-85
2024/04/01 00:48:20;;;;;;;5.90;1.70;;;;;;;;;;6106793;23;20166;-86
2024/04/01 00:50:58;;;;;;;4.30;1.60;;;;;;;;;;6025248;23;20194;-86
2024/04/01 00:53:29;;;;;;;5.47;1.70;;;;;;;;;;6025737;23;20182;-86
2024/04/01 00:55:55;;;;;;;4.63;1.50;;;;;;;;;;6099604;23;20213;-86
2024/04/01 00:58:24;;;;;;;6.43;1.87;;;;;;;;;;6118849;23;20163;-87
2024/04/01 01:00:51;;;;;;;4.30;1.73;;;;;;;;;;6125363;23;20151;-87
2024/04/01 01:03:18;;;;;;;4.30;1.50;;;;;;;;;;6118112;23;20163;-88
2024/04/01 01:05:48;;;;;;;7.00;1.70;;;;;;;;;;6112099;23;20182;-87
2024/04/01 01:08:17;;;;;;;6.17;1.90;;;;;;;;;;6110293;23;20171;-86
2024/04/01 01:10:49;;;;;;;7.70;1.67;;;;;;;;;;6114595;23;20175;-85
2024/04/01 01:13:17;;;;;;;4.47;1.60;;;;;;;;;;6124935;23;20158;-88
2024/04/01 01:15:44;;;;;;;6.30;1.77;;;;;;;;;;6123820;23;20261;-89
2024/04/01 01:18:11;;;;;;;6.23;1.67;;;;;;;;;;6122488;23;20182;-87
2024/04/01 01:20:37;;;;;;;4.40;1.50;;;;;;;;;;6124169;23;20177;-88
2024/04/01 01:23:07;;;;;;;3.10;1.70;;;;;;;;;;6123439;23;20174;-89
2024/04/01 01:25:37;;;;;;;6.13;1.43;;;;;;;;;;6122746;23;20183;-88
2024/04/01 01:28:07;;;;;;;7.77;1.70;;;;;;;;;;6116672;23;20139;-87
2024/04/01 01:30:35;;;;;;;6.37;1.70;;;;;;;;;;6125774;23;20147;-87
2024/04/01 01:33:04;;;;;;;5.00;1.73;;;;;;;;;;6112562;23;20242;-87
2024/04/01 01:35:34;;;;;;;5.70;1.60;;;;;;;;;;6106184;23;20198;-88
2024/04/01 01:38:07;;;;;;;6.73;1.70;;;;;;;;;;6108841;23;20151;-88
2024/04/01 01:40:33;;;;;;;10.27;1.97;;;;;;;;;;6106739;23;20171;-86
2024/04/01 01:43:01;;;;;;;6.03;1.90;;;;;;;;;;6106919;23;20178;-88
2024/04/01 01:45:27;;;;;;;5.10;1.80;;;;;;;;;;6118177;23;20166;-87
2024/04/01 01:47:57;;;;;;;4.90;1.40;;;;;;;;;;6125874;23;20178;-86
2024/04/01 01:50:23;;;;;;;5.63;1.63;;;;;;;;;;6124149;23;20254;-87
2024/04/01 01:52:54;;;;;;;7.47;1.80;;;;;;;;;;6117835;23;20163;-88
2024/04/01 01:55:33;;;;;;;3.53;1.80;;;;;;;;;;6108543;23;20209;-87
2024/04/01 01:58:03;;;;;;;7.03;2.10;;;;;;;;;;6084211;23;20194;-86
2024/04/01 02:00:35;;;;;;;4.97;1.60;;;;;;;;;;6108631;23;20197;-86
2024/04/01 02:03:06;;;;;;;4.80;1.80;;;;;;;;;;6106345;23;20175;-87
2024/04/01 02:05:32;;;;;;;5.67;1.53;;;;;;;;;;6107232;23;20183;-87
2024/04/01 02:08:00;;;;;;;6.93;1.50;;;;;;;;;;6107882;23;20242;-86
2024/04/01 02:10:28;;;;;;;4.97;1.53;;;;;;;;;;6107644;23;20234;-88
2024/04/01 02:12:59;;;;;;;5.13;1.60;;;;;;;;;;6105394;23;20179;-86
2024/04/01 02:15:28;;;;;;;5.20;1.70;;;;;;;;;;6104960;23;20257;-86
2024/04/01 02:17:56;;;;;;;8.07;1.47;;;;;;;;;;6108961;23;20178;-86
2024/04/01 02:20:23;;;;;;;3.57;1.63;;;;;;;;;;6108534;23;20205;-88
2024/04/01 02:23:05;;;;;;;4.37;1.70;;;;;;;;;;6108385;23;20620;-87
2024/04/01 02:25:37;;;;;;;8.50;1.70;;;;;;;;;;6109113;23;20217;-87
2024/04/01 02:28:08;;;;;;;6.23;1.60;;;;;;;;;;6118840;23;20172;-87
2024/04/01 02:30:45;;;;;;;6.13;1.93;;;;;;;;;;6126026;23;20188;-88
2024/04/01 02:33:15;;;;;;;4.77;1.50;;;;;;;;;;6137095;23;20170;-85
2024/04/01 02:36:12;;;;;;;5.10;1.70;;;9.90;99.90;;;;;;6109784;23;20285;-87
2024/04/01 02:38:49;;;;;;;5.33;1.70;;;;;;;;;;6104243;23;20632;-88
2024/04/01 02:41:17;;;;;;;6.13;1.53;;;;;;;;;;6107815;23;20174;-87
2024/04/01 02:43:46;;;;;;;3.20;1.60;;;;;;;;;;6108200;23;20563;-86
2024/04/01 02:46:13;;;;;;;5.73;1.73;;;;;;;;;;6133009;23;20190;-88
2024/04/01 02:48:40;;;;;;;6.07;2.07;;;;;;;;;;6107663;23;20166;-88
2024/04/01 02:51:06;;;;;;;4.63;1.93;;;;;;;;;;6107370;23;20257;-86
2024/04/01 02:53:47;;;;;;;5.90;1.87;;;;;;;;;;6107169;23;20604;-86
2024/04/01 02:56:20;;;;;;;5.43;1.60;;;;;;;;;;6133969;23;20222;-86
2024/04/01 02:58:48;;;;;;;5.77;1.73;;;;;;;;;;6107991;23;20170;-86
2024/04/01 03:01:15;;;;;;;5.77;1.70;;;;;;;;;;6107762;23;20174;-87
2024/04/01 03:03:43;;;;;;;3.93;1.63;;;;;;;;;;6108381;23;20173;-88
2024/04/01 03:06:10;;;;;;;9.33;1.90;;;;;;;;;;6106526;23;20194;-87
2024/04/01 03:08:38;;;;;;;5.40;1.73;;;;;;;;;;6108969;23;20659;-87
2024/04/01 03:11:11;;;;;;;4.83;1.80;;;;;;;;;;6112722;23;20182;-87
2024/04/01 03:13:39;;;;;;;4.27;1.90;;;;;;;;;;6134794;23;20223;-87
2024/04/01 03:16:06;;;;;;;4.60;1.63;;;;;;;;;;6108285;23;20644;-88
2024/04/01 03:18:42;;;;;;;4.90;1.50;;;;;;;;;;6107486;23;20177;-86
2024/04/01 03:21:13;;;;;;;6.20;1.80;;;;;;;;;;6133522;23;20577;-86
2024/04/01 03:23:40;;;;;;;4.37;1.70;;;;;;;;;;6107597;23;20170;-86
2024/04/01 03:26:12;;;;;;;3.27;1.40;;;;;;;;;;6107100;23;20673;-88
2024/04/01 03:28:44;;;;;;;6.50;1.60;;;;;;;;;;6107494;23;20214;-88
2024/04/01 03:31:11;;;;;;;4.80;1.67;;;;;;;;;;6108509;23;20162;-87
2024/04/01 03:33:38;;;;;;;5.27;1.97;;;;;;;;;;6133445;23;20229;-87
2024/04/01 03:36:05;;;;;;;3.60;1.50;;;;;;;;;;6132708;23;20198;-85
2024/04/01 03:38:34;;;;;;;5.93;1.50;;;;;;;;;;6106679;23;20196;-86
2024/04/01 03:41:04;;;;;;;6.30;1.60;;;;;;;;;;6107046;23;20686;-87
2024/04/01 03:43:31;;;;;;;4.23;1.43;;;;;;;;;;6107599;23;20206;-88
2024/04/01 03:46:00;;;;;;;2.70;1.30;;;;;;;;;;6133307;23;20252;-87
2024/04/01 03:48:34;;;;;;;6.40;1.70;;;;;;;;;;6133652;23;20166;-87
2024/04/01 03:51:03;;;;;;;3.67;1.60;;;;;;;;;;6108545;23;20174;-86
2024/04/01 03:53:32;;;;;;;7.37;2.07;;;;;;;;;;6107725;23;20639;-88
2024/04/01 03:56:04;;;;;;;4.60;1.80;;;;;;;;;;6132666;23;20216;-88
2024/04/01 03:58:39;;;;;;;7.03;1.63;;;;;;;;;;6104338;23;20166;-86
2024/04/01 04:01:20;;;;;;;6.37;1.83;;;;;;;;;;6108426;23;20170;-86
2024/04/01 04:03:50;;;;;;;3.77;1.50;;;;;;;;;;6108502;23;20170;-87
2024/04/01 04:06:17;;;;;;;6.50;1.70;;;;;;;;;;6107911;23;20297;-86
2024/04/01 04:08:57;;;;;;;6.30;1.70;;;;;;;;;;6108260;23;20166;-87
2024/04/01 04:11:23;;;;;;;3.83;1.47;;;;;;;;;;6109232;23;20668;-85
2024/04/01 04:13:50;;;;;;;5.07;1.60;;;;;;;;;;6108876;23;20177;-88
2024/04/01 04:16:18;;;;;;;6.00;1.70;;;;;;;;;;6109210;23;20245;-87
2024/04/01 04:18:46;;;;;;;3.47;1.50;;;;;;;;;;6119893;23;20170;-86
2024/04/01 04:21:12;;;;;;;2.50;1.60;;;;;;;;;;6115583;23;20162;-87
2024/04/01 04:23:40;;;;;;;3.70;1.60;;;;;;;;;;6134734;23;20241;-87
2024/04/01 04:26:08;;;;;;;2.53;1.43;;;;;;;;;;6134551;23;20189;-87
2024/04/01 04:28:36;;;;;;;3.73;1.50;;;;;;;;;;6109377;23;20166;-87
2024/04/01 04:31:03;;;;;;;3.67;1.53;;;;;;;;;;6110446;23;20193;-86
2024/04/01 04:33:32;;;;;;;5.20;1.90;;;;;;;;;;6110578;23;20170;-86
2024/04/01 04:35:59;;;;;;;2.93;1.43;;;;;;;;;;6123170;23;20198;-89
2024/04/01 04:38:26;;;;;;;4.47;1.90;;;;;;;;;;6125727;23;20512;-89
2024/04/01 04:40:52;;;;;;;3.43;1.60;;;;;;;;;;6111151;23;20174;-87
2024/04/01 04:43:23;;;;;;;3.40;1.70;;;;;;;;;;6110413;23;20204;-86
2024/04/01 04:46:15;;;;;;;3.43;1.43;;;;;;;;;;6136443;23;20217;-87
2024/04/01 04:48:49;;;;;;;4.13;1.83;;;;;;;;;;6109505;23;20170;-86
2024/04/01 04:51:18;;;;;;;4.93;1.80;;;;;;;;;;6109019;23;20193;-87
2024/04/01 04:53:48;;;;;;;2.63;1.70;;;;;;;;;;6109842;23;20177;-87
2024/04/01 04:56:14;;;;;;;3.43;1.57;;;;;;;;;;6135444;23;20190;-87
2024/04/01 04:59:00;;;;;;;6.73;1.90;;;;;;;;;;6109293;23;20166;-87
2024/04/01 05:01:30;;;;;;;3.77;1.67;;;;;;;;;;6109677;23;20174;-87
2024/04/01 05:04:06;;;;;;;4.40;1.70;;;;;;;;;;6110743;23;20229;-86
2024/04/01 05:06:48;;;;;;;4.00;2.00;;;;;;;;;;6115634;23;20193;-89
2024/04/01 05:09:18;;;;;;;6.03;1.90;;;;;;;;;;6141870;23;20169;-88
2024/04/01 05:11:51;;;;;;;4.00;1.70;;;;;;;;;;6138479;23;20608;-89
2024/04/01 05:14:17;;;;;;;6.03;2.00;;;;;;;;;;6140986;23;20170;-86
2024/04/01 05:19:33;;;;;;;3.03;1.53;;;;;;;;;;6130622;23;20214;-85
2024/04/01 05:22:06;;;;;;;4.27;2.00;;;;;;;;;;6143973;23;20189;-88
2024/04/01 05:24:38;;;;;;;2.97;1.77;;;;;;;;;;6117322;23;20289;-88
2024/04/01 05:30:03;;;;;;;3.23;2.00;;;;;;;;;;6138547;23;20229;-88
2024/04/01 05:32:29;;;;;;;3.70;2.07;;;;;;;;;;6142500;23;20647;-88
2024/04/01 05:34:58;;;;;;;4.77;2.00;;;;;;;;;;6148737;23;20189;-89
2024/04/01 05:37:25;;;;;;;3.50;2.40;;;;;;;;;;6150548;23;20677;-88
2024/04/01 05:39:53;;;;;;;4.77;2.20;;;;;;;;;;6144869;23;20226;-88
2024/04/01 05:42:20;;;;;;;3.37;2.40;;;;;;;;;;6120410;23;20162;-87
2024/04/01 05:44:47;;;;;;;4.67;2.67;;;;;;;;;;6125552;23;20190;-89
2024/04/01 05:47:14;;;;;;;4.50;2.40;;;;;;;;;;6124460;23;20158;-89
2024/04/01 05:49:41;;;;;;;4.77;2.73;;;;;;;;;;6148673;23;20158;-86
2024/04/01 05:52:09;;;;;;;2.87;2.57;;;;;;;;;;6127307;23;20190;-87
2024/04/01 05:54:36;;;;;;;3.10;2.17;;;;;;;;;;6123363;23;20194;-87
2024/04/01 05:57:03;;;;;;;4.53;3.20;;;;;;;;;;6153867;23;20185;-87
2024/04/01 05:59:30;;;;;;;4.57;2.90;;;;;;;;;;6155414;23;20153;-83
2024/04/01 06:01:57;;;;;;;4.00;2.77;;;;;;;;;;6116245;23;20162;-89
2024/04/01 06:04:25;;;;;;;5.47;2.67;;;9.80;99.90;;;;;;6129690;23;20158;-83
2024/04/01 06:06:52;;;;;;;3.30;2.53;;;;;;;;;;6155086;23;20163;-86
2024/04/01 06:09:28;;;;;;;4.57;3.40;;;;;;;;;;6154647;23;20201;-81
2024/04/01 06:11:57;;;;;;;6.97;3.20;;;;;;;;;;6154715;23;20162;-83
2024/04/01 06:14:28;;;;;;;5.53;3.30;;;;;;;;;;6129800;23;20198;-87
2024/04/01 06:16:56;;;;;;;6.43;3.63;;;;;;;;;;6124158;23;20222;-90
2024/04/01 06:19:23;;;;;;;3.97;3.50;;;;;;;;;;6113316;23;20572;-90
2024/04/01 06:22:27;;;;;;;5.23;3.80;;;;;;;;;;6137036;23;20155;-90
2024/04/01 06:25:18;;;;;;;6.50;3.77;;;;;;;;;;6141800;23;20220;-88
2024/04/01 06:28:02;;;;;;;5.63;4.00;;;;;;;;;;6147144;23;20154;-88
2024/04/01 06:30:33;;;;;;;5.33;3.57;;;;;;;;;;6123611;23;20154;-87
2024/04/01 06:32:59;;;;;;;6.50;3.80;;;;;;;;;;6122406;23;20174;-88
2024/04/01 06:35:31;;;;;;;5.47;4.00;;;;;;;;;;6117550;23;20190;-89
2024/04/01 06:37:58;;;;;;;6.03;4.20;;;;;;;;;;6116444;23;20171;-87
2024/04/01 06:40:28;;;;;;;6.47;4.53;;;;;;;;;;6116082;23;20173;-87
2024/04/01 06:42:56;;;;;;;5.43;3.70;;;;;;;;;;6114397;23;20178;-89
2024/04/01 06:45:26;;;;;;;5.70;4.00;;;;;;;;;;6121836;23;20263;-88
2024/04/01 06:47:52;;;;;;;6.40;4.00;;;;;;;;;;6128577;23;20159;-84
2024/04/01 06:50:19;;;;;;;4.33;3.77;;;;;;;;;;6128662;23;20150;-83
2024/04/01 06:52:49;;;;;;;5.70;4.00;;;;;;;;;;6127349;23;20194;-88
2024/04/01 06:55:21;;;;;;;4.97;3.97;;;;;;;;;;6120852;23;20200;-89
2024/04/01 06:57:56;;;;;;;6.03;5.43;;;;;;;;;;6109019;23;20201;-84
2024/04/01 07:00:23;;;;;;;6.73;5.00;;;;;;;;;;6134336;23;20178;-87
2024/04/01 07:02:49;;;;;;;5.07;3.80;;;;;;;;;;6109224;23;20174;-83
2024/04/01 07:05:17;;;;;;;5.03;2.90;;;;;;;;;;6108371;23;20254;-87
2024/04/01 07:07:44;;;;;;;6.47;4.30;;;;;;;;;;6108080;23;20564;-87
2024/04/01 07:10:15;;;;;;;6.53;4.20;;;;;;;;;;6134954;23;20162;-86
2024/04/01 07:12:44;;;;;;;5.70;4.23;;;;;;;;;;6108087;23;20612;-87
2024/04/01 07:15:19;;;;;;;3.87;3.30;;;;;;;;;;6134025;23;20201;-86
2024/04/01 07:17:48;;;;;;;6.23;2.80;;;;;;;;;;6109116;23;20197;-88
2024/04/01 07:20:28;;;;;;;3.37;2.47;;;;;;;;;;6104066;23;20198;-88
2024/04/01 07:23:23;;;;;;;4.63;3.60;;;;;;;;;;6126848;23;20178;-88
2024/04/01 07:29:23;;;;;;;5.33;3.67;;;9.70;99.90;;;;;;6106452;23;20210;-88
2024/04/01 07:32:17;;;;;;;4.10;2.60;;;;;;;;;;6135665;23;20169;-91
2024/04/01 07:34:45;;;;;;;4.20;2.60;;;;;;;;;;6111806;23;20198;-88
2024/04/01 07:37:29;;;;;;;4.93;2.80;;;;;;;;;;6112242;23;20189;-88
2024/04/01 08:03:07;;;;;;;4.50;1.90;;;;;;;;;;6139208;23;20237;-89
2024/04/01 08:05:54;;;;;;;2.50;2.00;;;;;;;;;;6113834;23;20198;-88
2024/04/01 08:08:42;;;;;;;4.50;2.10;;;;;;;;;;6107986;23;20165;-89
2024/04/01 08:14:07;;;;;;;2.97;2.67;;;;;;;;;;6111905;23;20170;-89
2024/04/01 08:17:10;;;;;;;1.50;1.40;;;;;;;;;;6133999;23;20671;-89
2024/04/01 08:19:55;;;;;;;2.30;1.50;;;;;;;;;;6110500;23;20166;-88
2024/04/01 08:22:47;;;;;;;2.83;1.70;;;;;;;;;;6108000;23;20182;-88
2024/04/01 08:31:06;;;;;;;3.70;1.90;;;;;;;;;;6109388;23;20174;-87
2024/04/01 08:33:41;;;;;;;0.73;0.73;;;;;;;;;;6111851;23;20256;-87
2024/04/01 08:36:38;;;;;;;0.63;0.63;;;;;;;;;;6105903;23;20651;-86
2024/04/01 08:39:35;;;;;;;1.30;0.80;;;;;;;;;;6128730;23;20178;-87
2024/04/01 08:51:19;;;;;;;0.30;0.30;;;;;;;;;;6114223;23;20199;-88
2024/04/01 08:54:07;;;;;;;1.87;0.40;;;;;;;;;;6124550;23;20178;-91
2024/04/01 08:56:49;;;;;;;1.50;0.50;;;;;;;;;;6116508;23;20259;-86
2024/04/01 08:59:40;;;;;;;0.67;0.40;;;;;;;;;;6111080;23;20232;-92
2024/04/01 09:02:26;;;;;;;0.90;0.50;;;;;;;;;;6135644;23;20225;-90
2024/04/01 09:04:55;;;;;;;0.30;0.30;;;;;;;;;;6107276;23;20217;-90
2024/04/01 09:07:26;;;;;;;0.50;0.50;;;;;;;;;;6110665;23;20229;-89
2024/04/01 09:10:06;;;;;;;0.87;0.40;;;;;;;;;;6115774;23;20174;-90
2024/04/01 09:12:55;;;;;;;0.73;0.70;;;;;;;;;;6112386;23;20180;-88
2024/04/01 09:15:37;;;;;;;1.83;0.60;;;;;;;;;;6115880;23;20732;-90
2024/04/01 09:18:13;;;;;;;0.40;0.40;;;;;;;;;;6112138;23;20253;-87
2024/04/01 09:21:09;;;;;;;2.60;2.40;;;;;;;;;;6142770;23;20159;-88
2024/04/01 09:23:46;;;;;;;0.60;0.60;;;;;;;;;;6111009;23;20241;-89
2024/04/01 09:26:21;;;;;;;1.60;1.50;;;;;;;;;;6117257;23;20221;-88
2024/04/01 09:28:50;;;;;;;0.77;0.40;;;;;;;;;;6145362;23;20160;-87
2024/04/01 09:31:21;;;;;;;0.50;0.50;;;;;;;;;;6112783;23;20166;-87
2024/04/01 09:33:53;;;;;;;0.33;0.33;;;;;;;;;;6107983;23;20180;-85
2024/04/01 09:36:30;;;;;;;1.27;1.17;;;;;;;;;;6104827;23;20194;-86
2024/04/01 09:39:02;;;;;;;0.53;0.53;;;;;;;;;;6113255;23;20173;-88
2024/04/01 09:41:49;;;;;;;0.60;0.60;;;;;;;;;;6115410;23;20178;-86
2024/04/01 09:44:28;;;;;;;0.20;0.20;;;;;;;;;;6118201;23;20233;-85
2024/04/01 09:47:12;;;;;;;;;;;;;;;;;;;;;
2024/04/01 09:49:56;;;;;;;0.33;0.33;;;;;;;;;;6113625;23;20198;-86
2024/04/01 09:59:34;;;;;;;0.30;0.27;;;12.20;99.90;;;;;;6123855;23;20207;-88
2024/04/01 10:02:36;;;;;;;;;;;;;;;;;;;;;
2024/04/01 10:05:53;;;;;;;0.30;0.30;;;;;;;;;;6142793;23;20209;-91
2024/04/01 10:08:44;;;;;;;0.47;0.47;;;;;;;;;;6115496;23;20176;-86
2024/04/01 10:11:49;;;;;;;1.60;0.33;;;;;;;;;;6143181;23;20177;-88
2024/04/01 10:14:36;;;;;;;0.60;0.60;;;;;;;;;;6118279;23;20178;-81
2024/04/01 10:17:40;;;;;;;0.43;0.43;;;;;;;;;;6122210;23;20240;-89
2024/04/01 10:20:19;;;;;;;0.40;0.40;;;;;;;;;;6142618;23;20154;-86
2024/04/01 10:23:41;;;;;;;0.13;0.13;;;12.50;99.90;;;;;;6140387;23;20146;-85
2024/04/01 10:26:40;;;;;;;0.20;0.20;;;;;;;;;;6131701;23;20200;-87
2024/04/01 10:29:55;;;;;;;1.23;0.30;;;12.10;99.90;;;;;;6104085;23;20224;-87
2024/04/01 10:32:53;;;;;;;;;;;;;;;;;;;;;
2024/04/01 10:39:41;;;;;;;0.83;0.30;;;;;;;;;;6137758;23;20202;-86
2024/04/01 10:42:40;;;;;;;2.37;1.10;;;;;;;;;;6134984;23;20197;-85
2024/04/01 10:45:37;;;;;;;0.30;0.30;;;;;;;;;;6109592;23;20204;-88
2024/04/01 10:48:32;;;;;;;0.43;0.43;;;;;;;;;;6023679;23;20208;-86
2024/04/01 10:54:28;;;;;;;1.33;0.20;;;11.50;99.90;;;;;;6005994;23;20232;-86
2024/04/01 10:57:32;;;;;;;0.27;0.20;;;;;;;;;;6023514;23;20221;-86
2024/04/01 11:00:32;;;;;;;0.50;0.30;;;;;;;;;;6120366;23;20173;-87
2024/04/01 11:03:29;;;;;;;0.10;0.10;;;;;;;;;;6107652;23;20174;-85
2024/04/01 11:06:14;;;;;;;1.80;0.30;;;;;;;;;;6121945;23;20194;-85
2024/04/01 11:08:47;;;;;;;0.20;0.20;;;;;;;;;;6136837;23;20600;-87
2024/04/01 11:11:32;;;;;;;1.90;0.10;;;;;;;;;;6111787;23;20253;-86
2024/04/01 11:14:05;;;;;;;0.20;0.20;;;;;;;;;;6110305;23;20169;-84
2024/04/01 11:16:39;;;;;;;0.30;0.30;;;;;;;;;;6105683;23;20548;-83
2024/04/01 11:19:16;;;;;;;0.23;0.23;;;;;;;;;;6107327;23;20194;-82
2024/04/01 11:21:51;;;;;;;0.10;0.10;;;;;;;;;;6109806;23;20165;-86
2024/04/01 11:24:27;;;;;;;0.30;0.30;;;;;;;;;;6108945;23;20695;-85
2024/04/01 11:27:11;;;;;;;1.53;0.97;;;;;;;;;;6110122;23;20174;-85
2024/04/01 11:29:59;;;;;;;5.43;2.80;;;;;;;;;;6107985;23;20174;-84
2024/04/01 11:35:59;;;;;;;0.30;0.30;;;;;;;;;;6133182;23;20792;-87
2024/04/01 11:38:32;;;;;;;2.00;0.70;;;;;;;;;;6107088;23;20196;-86
2024/04/01 11:41:05;;;;;;;1.70;1.10;;;12.30;99.90;;;;;;6106077;23;20262;-86
2024/04/01 11:43:37;;;;;;;0.30;0.30;;;;;;;;;;6136155;23;20158;-85
2024/04/01 11:46:06;;;;;;;0.20;0.20;;;;;;;;;;6106276;23;20205;-86
2024/04/01 11:48:33;;;;;;;0.43;0.40;;;;;;;;;;6119100;23;20158;-84
2024/04/01 11:51:03;;;;;;;0.60;0.30;;;;;;;;;;6124610;23;20162;-84
2024/04/01 11:53:49;;;;;;;0.57;0.40;;;;;;;;;;6103392;23;20170;-84
2024/04/01 11:56:17;;;;;;;0.50;0.50;;;;;;;;;;6107717;23;20201;-80
2024/04/01 11:58:58;;;;;;;0.30;0.30;;;;;;;;;;6151935;23;20193;-85
2024/04/01 12:01:35;;;;;;;0.30;0.30;;;;;;;;;;6125564;23;20152;-85
2024/04/01 12:06:45;;;;;;;0.53;0.33;;;;;;;;;;6131755;23;20205;-85
2024/04/01 12:09:14;;;;;;;0.40;0.40;;;;;;;;;;6110918;23;20229;-87
2024/04/01 12:11:49;;;;;;;0.70;0.70;;;;;;;;;;6137589;23;20298;-87
2024/04/01 12:14:28;;;;;;;0.30;0.30;;;;;;;;;;6115252;23;20178;-82
2024/04/01 12:17:01;;;;;;;0.20;0.20;;;;;;;;;;6107687;23;20186;-85
2024/04/01 12:19:37;;;;;;;0.13;0.07;;;;;;;;;;6109773;23;20221;-86
2024/04/01 12:25:12;;;;;;;0.20;0.20;;;;;;;;;;6095355;23;20277;-87
2024/04/01 12:27:39;;;;;;;1.03;0.37;;;;;;;;;;6105711;23;20229;-86
2024/04/01 12:30:12;;;;;;;0.40;0.40;;;;;;;;;;6133304;23;20612;-85
2024/04/01 12:32:48;;;;;;;0.40;0.20;;;;;;;;;;6126624;23;20181;-86
2024/04/01 12:38:15;;;;;;;0.10;0.10;;;;;;;;;;6119848;23;20201;-84
2024/04/01 12:40:50;;;;;;;0.30;0.30;;;;;;;;;;6108600;23;20253;-87
2024/04/01 12:43:19;;;;;;;0.45;0.45;;;;;;;;;;6133644;23;20165;-85
2024/04/01 12:45:50;;;;;;;0.10;0.10;;;;;;;;;;6131686;23;20190;-85
2024/04/01 12:48:23;;;;;;;0.73;0.73;;;;;;;;;;6131951;23;20541;-85
2024/04/01 12:50:57;;;;;;;0.60;0.60;;;;;;;;;;6132649;23;20317;-85
2024/04/01 12:53:44;;;;;;;0.10;0.10;;;13.20;99.90;;;;;;6132649;23;20145;-86
2024/04/01 12:56:18;;;;;;;0.20;0.20;;;;;;;;;;6107471;23;20671;-86
2024/04/01 12:58:53;;;;;;;0.10;0.10;;;;;;;;;;6105568;23;20201;-86
2024/04/01 13:01:26;;;;;;;0.40;0.40;;;;;;;;;;6105828;23;20177;-85
2024/04/01 13:04:04;;;;;;;0.60;0.60;;;;;;;;;;6106627;23;20189;-88
2024/04/01 13:06:47;;;;;;;0.50;0.50;;;;;;;;;;6105215;23;20270;-86
2024/04/01 13:09:18;;;;;;;0.40;0.40;;;;;;;;;;6108403;23;20190;-87
2024/04/01 13:11:55;;;;;;;0.20;0.20;;;;;;;;;;6111226;23;20167;-87
2024/04/01 13:14:57;;;;;;;0.20;0.20;;;;;;;;;;6126140;23;20224;-85
2024/04/01 13:17:33;;;;;;;0.27;0.27;;;;;;;;;;6117514;23;20193;-89
2024/04/01 13:20:07;;;;;;;0.30;0.30;;;;;;;;;;6110962;23;20173;-85
2024/04/01 13:22:37;;;;;;;0.20;0.20;;;;;;;;;;6107634;23;20222;-86
2024/04/01 13:25:34;;;;;;;0.20;0.20;;;;;;;;;;6132650;23;20182;-86
2024/04/01 13:28:05;;;;;;;0.47;0.30;;;;;;;;;;6100011;23;20178;-86
2024/04/01 13:30:40;;;;;;;0.10;0.10;;;;;;;;;;6106922;23;20225;-86
2024/04/01 13:33:28;;;;;;;0.00;0.00;;;;;;;;;;6106587;23;20174;-86
2024/04/01 13:36:09;;;;;;;0.20;0.17;;;;;;;;;;6131345;23;20197;-85
2024/04/01 13:38:58;;;;;;;0.20;0.20;;;;;;;;;;6107124;23;20190;-87
2024/04/01 13:41:35;;;;;;;0.13;0.13;;;;;;;;;;6108579;23;20166;-87
2024/04/01 13:44:12;;;;;;;0.20;0.20;;;;;;;;;;6130818;23;20158;-86
2024/04/01 13:47:14;;;;;;;0.20;0.20;;;;;;;;;;6140747;23;20161;-84
2024/04/01 13:49:55;;;;;;;0.10;0.10;;;;;;;;;;6110208;23;20170;-86
2024/04/01 13:52:38;;;;;;;0.40;0.20;;;14.20;99.90;;;;;;6099066;23;20225;-88
2024/04/01 13:55:12;;;;;;;0.33;0.20;;;14.20;99.90;;;;;;6138633;23;20192;-88
2024/04/01 13:57:55;;;;;;;0.95;0.10;;;14.60;99.90;;;;;;6106173;23;20478;-87
2024/04/01 14:00:24;;;;;;;0.30;0.30;;;;;;;;;;6105247;23;20225;-86
2024/04/01 14:02:54;;;;;;;0.20;0.20;;;;;;;;;;6103929;23;20201;-84
2024/04/01 14:05:37;;;;;;;0.15;0.15;;;14.80;99.90;;;;;;6130891;23;20268;-86
2024/04/01 14:08:09;;;;;;;0.73;0.20;;;;;;;;;;6129338;23;20162;-87
2024/04/01 14:10:44;;;;;;;0.32;0.20;;;15.50;99.90;;;;;;6134117;23;20159;-86
2024/04/01 14:13:19;;;;;;;0.10;0.10;;;;;;;;;;6109127;23;20174;-85
2024/04/01 14:15:51;;;;;;;0.10;0.10;;;15.40;99.90;;;;;;6103449;23;20224;-77
2024/04/01 14:18:37;;;;;;;0.22;0.22;;;14.80;99.90;;;;;;6137264;23;20209;-76
2024/04/01 14:21:08;;;;;;;0.20;0.20;;;14.90;99.90;;;;;;6135174;23;20158;-76
2024/04/01 14:23:37;;;;;;;0.22;0.22;;;15.30;99.90;;;;;;6146667;23;20182;-75
2024/04/01 14:26:04;;;;;;;0.63;0.30;;;14.80;99.90;;;;;;6121792;23;20201;-76
2024/04/01 14:28:32;;;;;;;0.38;0.28;;;15.40;99.90;;;;;;6109783;23;20177;-76
2024/04/01 14:30:58;;;;;;;0.40;0.30;;;15.60;99.90;;;;;;6130048;23;20620;-76
2024/04/01 14:33:26;;;;;;;0.30;0.30;;;15.50;99.90;;;;;;6128832;23;20169;-76
2024/04/01 14:35:53;;;;;;;0.77;0.50;;;14.70;99.90;;;;;;6128900;23;20277;-76
2024/04/01 14:38:20;;;;;;;0.20;0.20;;;;;;;;;;6102461;23;20285;-75
2024/04/01 14:40:48;;;;;;;0.20;0.20;;;15.50;99.90;;;;;;6129682;23;20205;-75
2024/04/01 14:43:16;;;;;;;0.52;0.30;;;15.90;99.90;;;;;;6103811;23;20564;-76
2024/04/01 14:45:43;;;;;;;0.50;0.38;;;16.30;99.90;;;;;;6128060;23;20222;-77
2024/04/01 14:48:14;;;;;;;0.40;0.40;;;16.30;99.90;;;;;;6130629;23;20165;-76
2024/04/01 14:50:42;;;;;;;0.30;0.30;;;15.30;99.90;;;;;;6104428;23;20235;-75
2024/04/01 14:53:09;;;;;;;0.65;0.30;;;14.80;99.90;;;;;;6134143;23;20174;-76
2024/04/01 14:55:36;;;;;;;0.20;0.20;;;14.70;99.90;;;;;;6102685;23;20193;-76
2024/04/01 14:58:05;;;;;;;0.32;0.30;;;14.80;99.90;;;;;;6129513;23;20192;-75
2024/04/01 15:00:31;;;;;;;1.52;0.60;;;15.00;99.90;;;;;;6128898;23;20197;-76
2024/04/01 15:03:05;;;;;;;0.73;0.35;;;14.90;99.90;;;;;;6128558;23;20168;-76
2024/04/01 15:05:33;;;;;;;0.80;0.50;;;14.10;99.90;;;;;;6105626;23;20194;-76
2024/04/01 15:08:04;;;;;;;0.50;0.50;;;13.70;99.90;;;;;;6109082;23;20162;-76
2024/04/01 15:10:30;;;;;;;1.50;0.50;;;13.60;99.90;;;;;;6132518;23;20209;-75
2024/04/01 15:13:05;;;;;;;0.53;0.53;;;13.00;99.90;;;;;;6128850;23;20241;-76
2024/04/01 15:15:33;;;;;;;0.30;0.30;;;12.40;99.90;;;;;;6131426;23;20726;-76
2024/04/01 15:18:01;;;;;;;0.70;0.40;;;12.20;99.90;;;;;;6127477;23;20174;-77
2024/04/01 15:20:28;;;;;;;0.70;0.50;;;12.10;99.90;;;;;;6127795;23;20174;-76
2024/04/01 15:22:56;;;;;;;0.60;0.47;;;;;;;;;;6127652;23;20213;-76
2024/04/01 15:25:22;;;;;;;2.30;1.50;;;12.30;99.90;;;;;;6128320;23;20304;-76
2024/04/01 15:27:50;;;;;;;1.10;0.87;;;12.30;99.90;;;;;;6130355;23;20168;-76
2024/04/01 15:30:18;;;;;;;0.40;0.40;;;11.90;99.90;;;;;;6130529;23;20166;-76
2024/04/01 15:32:46;;;;;;;0.43;0.43;;;11.90;99.90;;;;;;6130799;23;20506;-75
2024/04/01 15:35:12;;;;;;;0.57;0.50;;;12.00;99.90;;;;;;6104505;23;20590;-75
2024/04/01 15:37:39;;;;;;;0.50;0.50;;;12.00;99.90;;;;;;6104713;23;20198;-76
2024/04/01 15:40:07;;;;;;;0.50;0.50;;;11.80;99.90;;;;;;6132092;23;20658;-76
2024/04/01 15:42:35;;;;;;;0.40;0.40;;;;;;;;;;6131865;23;20542;-77
2024/04/01 15:45:05;;;;;;;2.23;0.50;;;12.20;99.90;;;;;;6131588;23;20161;-76
2024/04/01 15:47:34;;;;;;;0.50;0.50;;;12.00;99.90;;;;;;6106865;23;20224;-76
2024/04/01 15:50:01;;;;;;;1.67;0.57;;;12.20;99.90;;;;;;6130508;23;20704;-76
2024/04/01 15:52:29;;;;;;;0.30;0.30;;;12.20;99.90;;;;;;6129887;23;20170;-76
2024/04/01 15:54:56;;;;;;;1.40;0.70;;;12.30;99.90;;;;;;6130909;23;20496;-76
2024/04/01 15:57:27;;;;;;;0.33;0.33;;;11.80;99.90;;;;;;6129298;23;20188;-76
2024/04/01 15:59:54;;;;;;;0.40;0.40;;;11.80;99.90;;;;;;6103396;23;20194;-73
2024/04/01 16:02:22;;;;;;;0.97;0.50;;;11.90;99.90;;;;;;6128680;23;20162;-75
2024/04/01 16:04:50;;;;;;;0.30;0.30;;;11.80;99.90;;;;;;6129333;23;20503;-75
2024/04/01 16:07:17;;;;;;;0.60;0.50;;;11.80;99.90;;;;;;6129081;23;20194;-76
2024/04/01 16:09:45;;;;;;;0.20;0.20;;;11.90;99.90;;;;;;6128602;23;20197;-75
2024/04/01 16:12:13;;;;;;;0.30;0.30;;;12.00;99.90;;;;;;6130556;23;20188;-76
2024/04/01 16:14:39;;;;;;;0.50;0.50;;;12.00;99.90;;;;;;6134647;23;20166;-76
2024/04/01 16:17:06;;;;;;;0.63;0.60;;;12.00;99.90;;;;;;6114855;23;20194;-76
2024/04/01 16:19:34;;;;;;;0.53;0.53;;;12.10;99.90;;;;;;6115832;23;20193;-75
2024/04/01 16:22:08;;;;;;;0.40;0.40;;;12.00;99.90;;;;;;6140656;23;20166;-77